createdAt,value
2017-11-09T00:02:07.742Z,30.73
2017-11-09T00:07:40.099Z,33.20
2017-11-09T00:10:07.692Z,33.65
2017-11-09T00:12:40.177Z,32.28
2017-11-09T00:15:07.764Z,35.50
2017-11-09T00:17:35.350Z,31.85
2017-11-09T00:20:02.953Z,33.28
2017-11-09T00:22:30.539Z,32.92
2017-11-09T00:24:58.879Z,31.00
2017-11-09T00:27:26.457Z,34.17
2017-11-09T00:29:54.030Z,31.87
2017-11-09T00:32:21.624Z,33.67
2017-11-09T00:34:49.177Z,34.40
2017-11-09T00:37:17.525Z,33.45
2017-11-09T00:39:45.084Z,33.45
2017-11-09T00:42:12.643Z,36.88
2017-11-09T00:44:40.255Z,34.33
2017-11-09T00:47:07.846Z,35.25
2017-11-09T00:49:35.427Z,34.58
2017-11-09T00:52:02.985Z,32.08
2017-11-09T00:54:30.558Z,35.28
2017-11-09T00:56:58.110Z,34.97
2017-11-09T00:59:25.708Z,33.17
2017-11-09T01:01:54.064Z,34.42
2017-11-09T01:04:21.651Z,34.65
2017-11-09T01:06:50.027Z,33.38
2017-11-09T01:09:18.408Z,35.05
2017-11-09T01:11:46.739Z,36.88
2017-11-09T01:14:14.328Z,36.92
2017-11-09T01:16:41.920Z,37.38
2017-11-09T01:19:10.246Z,35.65
2017-11-09T01:21:37.828Z,35.45
2017-11-09T01:24:05.422Z,36.53
2017-11-09T01:26:33.811Z,37.55
2017-11-09T01:29:02.134Z,35.13
2017-11-09T01:31:29.689Z,36.83
2017-11-09T01:33:57.262Z,37.03
2017-11-09T01:36:24.822Z,36.15
2017-11-09T01:38:52.409Z,37.28
2017-11-09T01:41:19.984Z,37.75
2017-11-09T01:43:47.551Z,36.97
2017-11-09T01:46:15.885Z,35.65
2017-11-09T01:48:43.455Z,35.72
2017-11-09T01:51:11.055Z,35.13
2017-11-09T01:53:39.417Z,36.72
2017-11-09T01:56:06.995Z,36.75
2017-11-09T01:58:35.349Z,35.35
2017-11-09T02:01:02.959Z,36.88
2017-11-09T02:03:30.553Z,35.90
2017-11-09T02:05:58.124Z,35.55
2017-11-09T02:08:25.689Z,36.22
2017-11-09T02:10:53.284Z,34.22
2017-11-09T02:13:20.855Z,36.30
2017-11-09T02:15:49.228Z,36.88
2017-11-09T02:18:17.586Z,34.20
2017-11-09T02:20:45.177Z,36.50
2017-11-09T02:23:13.524Z,34.05
2017-11-09T02:25:41.099Z,34.53
2017-11-09T02:28:08.693Z,35.40
2017-11-09T02:30:37.031Z,34.88
2017-11-09T02:33:04.615Z,37.60
2017-11-09T02:35:32.987Z,34.05
2017-11-09T02:38:00.544Z,37.53
2017-11-09T02:40:28.137Z,38.05
2017-11-09T02:42:56.460Z,33.55
2017-11-09T02:45:24.070Z,35.30
2017-11-09T02:47:52.437Z,35.60
2017-11-09T02:50:20.031Z,34.75
2017-11-09T02:52:47.626Z,34.13
2017-11-09T02:55:15.204Z,35.55
2017-11-09T02:57:42.804Z,35.75
2017-11-09T03:00:11.164Z,37.65
2017-11-09T03:02:38.759Z,36.33
2017-11-09T03:05:06.354Z,36.45
2017-11-09T03:07:33.946Z,33.00
2017-11-09T03:10:01.559Z,36.38
2017-11-09T03:12:29.192Z,34.28
2017-11-09T03:14:57.600Z,36.63
2017-11-09T03:17:25.181Z,37.70
2017-11-09T03:19:52.747Z,33.97
2017-11-09T03:22:20.352Z,33.28
2017-11-09T03:24:48.681Z,34.80
2017-11-09T03:27:16.285Z,35.78
2017-11-09T03:29:43.871Z,38.50
2017-11-09T03:32:12.196Z,33.83
2017-11-09T03:34:39.780Z,32.67
2017-11-09T03:37:07.362Z,34.30
2017-11-09T03:39:35.732Z,35.22
2017-11-09T03:42:03.329Z,37.75
2017-11-09T03:44:31.686Z,37.97
2017-11-09T03:46:59.246Z,35.13
2017-11-09T03:49:26.838Z,36.65
2017-11-09T03:51:54.394Z,37.40
2017-11-09T03:54:22.739Z,37.20
2017-11-09T03:56:50.340Z,38.80
2017-11-09T03:59:18.681Z,36.40
2017-11-09T04:01:46.274Z,36.35
2017-11-09T04:04:14.641Z,36.53
2017-11-09T04:06:42.995Z,37.47
2017-11-09T04:09:10.579Z,40.08
2017-11-09T04:11:38.170Z,37.33
2017-11-09T04:14:05.733Z,36.92
2017-11-09T04:16:33.305Z,37.28
2017-11-09T04:19:00.911Z,37.90
2017-11-09T04:21:28.481Z,37.13
2017-11-09T04:23:56.060Z,40.45
2017-11-09T04:26:24.424Z,36.53
2017-11-09T04:28:52.004Z,38.05
2017-11-09T04:31:20.358Z,38.30
2017-11-09T04:33:47.942Z,36.30
2017-11-09T04:36:15.514Z,40.03
2017-11-09T04:38:43.837Z,39.35
2017-11-09T04:41:11.464Z,38.20
2017-11-09T04:43:39.797Z,37.13
2017-11-09T04:46:07.361Z,37.15
2017-11-09T04:48:34.942Z,36.58
2017-11-09T04:51:02.520Z,36.55
2017-11-09T04:53:30.843Z,34.95
2017-11-09T04:55:58.429Z,36.83
2017-11-09T04:58:26.005Z,37.53
2017-11-09T05:00:53.598Z,38.75
2017-11-09T05:03:21.985Z,35.67
2017-11-09T05:05:49.583Z,37.45
2017-11-09T05:08:17.157Z,36.90
2017-11-09T05:10:45.538Z,37.83
2017-11-09T05:13:13.112Z,37.17
2017-11-09T05:15:40.673Z,37.25
2017-11-09T05:18:08.259Z,37.83
2017-11-09T05:20:35.853Z,37.13
2017-11-09T05:23:03.443Z,36.90
2017-11-09T05:25:31.030Z,42.62
2017-11-09T05:27:58.603Z,36.72
2017-11-09T05:30:26.165Z,35.90
2017-11-09T05:32:53.779Z,36.60
2017-11-09T05:35:21.344Z,36.95
2017-11-09T05:37:48.930Z,37.42
2017-11-09T05:40:16.532Z,38.42
2017-11-09T05:42:44.885Z,39.53
2017-11-09T05:45:12.442Z,36.70
2017-11-09T05:47:40.040Z,38.47
2017-11-09T05:50:07.616Z,38.97
2017-11-09T05:52:35.205Z,37.97
2017-11-09T05:55:02.812Z,36.65
2017-11-09T05:57:31.164Z,37.65
2017-11-09T05:59:58.762Z,39.05
2017-11-09T06:02:27.113Z,39.65
2017-11-09T06:04:54.702Z,37.80
2017-11-09T06:07:23.044Z,37.80
2017-11-09T06:09:50.667Z,38.63
2017-11-09T06:12:18.327Z,38.28
2017-11-09T06:14:45.926Z,39.40
2017-11-09T06:17:13.560Z,38.97
2017-11-09T06:19:41.167Z,40.65
2017-11-09T06:22:08.745Z,40.53
2017-11-09T06:24:37.150Z,39.17
2017-11-09T06:27:04.751Z,38.30
2017-11-09T06:29:32.349Z,36.78
2017-11-09T06:31:59.972Z,37.30
2017-11-09T06:34:27.544Z,36.97
2017-11-09T06:36:55.110Z,38.45
2017-11-09T06:39:22.693Z,38.03
2017-11-09T06:41:50.275Z,38.20
2017-11-09T06:44:18.628Z,41.03
2017-11-09T06:46:46.246Z,39.30
2017-11-09T06:49:13.820Z,39.42
2017-11-09T06:51:41.384Z,40.45
2017-11-09T06:54:08.988Z,42.10
2017-11-09T06:56:36.547Z,36.83
2017-11-09T06:59:04.114Z,40.95
2017-11-09T07:01:31.735Z,37.22
2017-11-09T07:03:59.312Z,41.45
2017-11-09T07:06:26.868Z,40.53
2017-11-09T07:08:54.453Z,39.92
2017-11-09T07:11:22.040Z,38.47
2017-11-09T07:13:50.381Z,38.72
2017-11-09T07:16:17.991Z,40.67
2017-11-09T07:18:46.349Z,39.00
2017-11-09T07:21:13.934Z,38.70
2017-11-09T07:23:41.537Z,38.22
2017-11-09T07:26:09.148Z,38.63
2017-11-09T07:28:37.507Z,37.90
2017-11-09T07:31:05.078Z,37.53
2017-11-09T07:33:32.684Z,40.17
2017-11-09T07:36:00.265Z,39.60
2017-11-09T07:38:27.859Z,37.70
2017-11-09T07:40:55.425Z,38.25
2017-11-09T07:43:23.016Z,40.55
2017-11-09T07:45:50.597Z,36.50
2017-11-09T07:48:18.199Z,38.85
2017-11-09T07:50:45.808Z,40.80
2017-11-09T07:53:13.436Z,40.50
2017-11-09T07:55:45.776Z,37.30
2017-11-09T07:58:13.371Z,34.92
2017-11-09T08:00:40.952Z,37.08
2017-11-09T08:03:09.306Z,40.55
2017-11-09T08:05:36.895Z,39.83
2017-11-09T08:08:05.227Z,35.85
2017-11-09T08:10:32.817Z,36.03
2017-11-09T08:13:00.414Z,39.78
2017-11-09T08:15:28.016Z,39.75
2017-11-09T08:17:56.410Z,39.97
2017-11-09T08:20:23.992Z,41.42
2017-11-09T08:22:51.601Z,39.97
2017-11-09T08:25:27.914Z,40.33
2017-11-09T08:27:58.585Z,36.92
2017-11-09T08:30:27.283Z,37.03
2017-11-09T08:32:57.494Z,36.75
2017-11-09T08:35:25.876Z,37.45
2017-11-09T08:37:54.272Z,36.08
2017-11-09T08:40:21.896Z,35.42
2017-11-09T08:42:50.300Z,34.95
2017-11-09T08:45:18.676Z,35.25
2017-11-09T08:47:46.265Z,34.20
2017-11-09T08:50:15.091Z,34.60
2017-11-09T08:52:42.672Z,35.85
2017-11-09T08:55:10.273Z,38.88
2017-11-09T08:57:37.874Z,35.92
2017-11-09T09:00:05.486Z,33.75
2017-11-09T09:02:33.084Z,35.58
2017-11-09T09:05:00.642Z,34.50
2017-11-09T09:07:28.228Z,34.80
2017-11-09T09:09:55.870Z,32.97
2017-11-09T09:12:23.439Z,35.08
2017-11-09T09:14:51.065Z,34.08
2017-11-09T09:17:18.700Z,32.03
2017-11-09T09:19:46.260Z,31.33
2017-11-09T09:22:23.797Z,34.30
2017-11-09T09:24:51.994Z,30.02
2017-11-09T09:27:35.276Z,34.17
2017-11-09T09:30:18.273Z,33.20
2017-11-09T09:32:49.515Z,33.78
2017-11-09T09:35:22.126Z,34.65
2017-11-09T09:37:51.942Z,30.90
2017-11-09T09:40:21.537Z,32.45
2017-11-09T09:42:49.117Z,32.38
2017-11-09T09:45:17.551Z,33.00
2017-11-09T09:47:45.176Z,30.62
2017-11-09T09:50:12.831Z,30.92
2017-11-09T09:52:40.503Z,31.55
2017-11-09T09:55:09.627Z,32.67
2017-11-09T09:57:37.208Z,31.87
2017-11-09T10:00:04.830Z,30.25
2017-11-09T10:02:32.421Z,30.50
2017-11-09T10:04:59.999Z,29.08
2017-11-09T10:07:27.601Z,30.17
2017-11-09T10:09:55.968Z,29.85
2017-11-09T10:12:23.583Z,32.50
2017-11-09T10:14:51.176Z,30.77
2017-11-09T10:17:18.752Z,27.55
2017-11-09T10:19:46.352Z,27.00
2017-11-09T10:22:13.919Z,29.00
2017-11-09T10:24:41.529Z,28.73
2017-11-09T10:27:09.134Z,27.65
2017-11-09T10:29:37.504Z,27.67
2017-11-09T10:32:05.121Z,28.30
2017-11-09T10:34:32.748Z,29.42
2017-11-09T10:37:00.373Z,30.15
2017-11-09T10:39:27.977Z,29.98
2017-11-09T10:41:55.573Z,30.35
2017-11-09T10:44:23.176Z,29.00
2017-11-09T10:46:51.513Z,29.05
2017-11-09T10:49:19.121Z,28.40
2017-11-09T10:51:47.465Z,28.77
2017-11-09T10:54:15.025Z,29.90
2017-11-09T10:56:42.648Z,29.87
2017-11-09T10:59:10.227Z,28.55
2017-11-09T11:01:37.801Z,30.98
2017-11-09T11:04:05.418Z,30.30
2017-11-09T11:06:33.759Z,28.75
2017-11-09T11:09:02.243Z,31.92
2017-11-09T11:11:29.870Z,31.25
2017-11-09T11:13:57.459Z,30.73
2017-11-09T11:16:25.078Z,29.58
2017-11-09T11:18:53.453Z,31.50
2017-11-09T11:21:25.021Z,33.13
2017-11-09T11:23:52.640Z,31.73
2017-11-09T11:26:20.240Z,30.90
2017-11-09T11:28:48.589Z,32.15
2017-11-09T11:31:16.202Z,34.33
2017-11-09T11:33:43.816Z,31.33
2017-11-09T11:36:11.419Z,33.15
2017-11-09T11:38:38.998Z,32.15
2017-11-09T11:41:06.606Z,32.88
2017-11-09T11:43:34.221Z,34.00
2017-11-09T11:46:01.804Z,33.50
2017-11-09T11:48:29.385Z,37.50
2017-11-09T11:50:56.963Z,33.15
2017-11-09T11:53:24.548Z,33.67
2017-11-09T11:55:52.172Z,32.88
2017-11-09T11:58:19.768Z,31.70
2017-11-09T12:00:48.113Z,33.58
2017-11-09T12:03:15.728Z,32.72
2017-11-09T12:05:43.322Z,32.60
2017-11-09T12:08:10.894Z,32.17
2017-11-09T12:10:38.488Z,34.97
2017-11-09T12:13:06.818Z,34.60
2017-11-09T12:15:34.396Z,35.63
2017-11-09T12:18:02.005Z,31.80
2017-11-09T12:20:30.348Z,33.40
2017-11-09T12:22:57.918Z,34.22
2017-11-09T12:25:25.530Z,31.90
2017-11-09T12:27:53.119Z,33.35
2017-11-09T12:30:20.683Z,35.33
2017-11-09T12:32:48.281Z,33.35
2017-11-09T12:35:16.631Z,34.28
2017-11-09T12:37:44.219Z,35.97
2017-11-09T12:40:11.796Z,34.05
2017-11-09T12:42:40.188Z,36.53
2017-11-09T12:45:07.781Z,32.38
2017-11-09T12:47:35.385Z,34.70
2017-11-09T12:50:02.987Z,33.35
2017-11-09T12:52:30.580Z,36.40
2017-11-09T12:54:58.160Z,34.95
2017-11-09T12:57:25.763Z,33.40
2017-11-09T12:59:53.340Z,33.40
2017-11-09T13:02:20.923Z,33.05
2017-11-09T13:04:48.562Z,32.15
2017-11-09T13:07:16.141Z,32.55
2017-11-09T13:09:43.724Z,32.85
2017-11-09T13:12:11.346Z,34.58
2017-11-09T13:14:38.924Z,35.03
2017-11-09T13:17:06.501Z,34.28
2017-11-09T13:19:34.104Z,33.35
2017-11-09T13:22:02.449Z,34.30
2017-11-09T13:24:30.040Z,33.95
2017-11-09T13:26:57.644Z,34.13
2017-11-09T13:29:25.236Z,37.50
2017-11-09T13:31:52.841Z,35.35
2017-11-09T13:34:25.148Z,34.42
2017-11-09T13:36:52.733Z,32.25
2017-11-09T13:39:21.099Z,32.30
2017-11-09T13:41:48.695Z,33.42
2017-11-09T13:44:16.420Z,33.25
2017-11-09T13:46:44.006Z,33.80
2017-11-09T13:49:11.596Z,34.45
2017-11-09T13:51:39.180Z,34.30
2017-11-09T13:54:08.353Z,38.15
2017-11-09T13:56:35.917Z,35.28
2017-11-09T13:59:03.477Z,32.35
2017-11-09T14:01:31.081Z,30.65
2017-11-09T14:03:58.649Z,32.95
2017-11-09T14:06:26.278Z,34.40
2017-11-09T14:08:54.636Z,32.65
2017-11-09T14:11:23.009Z,31.37
2017-11-09T14:13:50.624Z,32.63
2017-11-09T14:16:18.212Z,35.38
2017-11-09T14:18:45.796Z,30.98
2017-11-09T14:21:13.417Z,34.50
2017-11-09T14:23:41.019Z,32.83
2017-11-09T14:26:08.636Z,35.33
2017-11-09T14:28:37.026Z,32.83
2017-11-09T14:31:04.608Z,32.95
2017-11-09T14:33:32.270Z,30.88
2017-11-09T14:35:59.859Z,30.45
2017-11-09T14:38:31.416Z,32.00
2017-11-09T14:40:59.053Z,33.10
2017-11-09T14:43:26.641Z,31.73
2017-11-09T14:45:54.291Z,32.80
2017-11-09T14:48:22.649Z,30.50
2017-11-09T14:50:50.224Z,34.30
2017-11-09T14:53:17.840Z,29.73
2017-11-09T14:55:46.187Z,33.70
2017-11-09T14:58:13.802Z,32.70
2017-11-09T15:00:41.403Z,34.20
2017-11-09T15:03:09.013Z,32.13
2017-11-09T15:05:37.379Z,34.15
2017-11-09T15:08:04.974Z,32.03
2017-11-09T15:10:32.684Z,34.47
2017-11-09T15:13:00.266Z,31.77
2017-11-09T15:15:27.896Z,34.92
2017-11-09T15:17:55.485Z,34.10
2017-11-09T15:20:23.072Z,34.50
2017-11-09T15:22:51.436Z,33.85
2017-11-09T15:25:19.034Z,33.63
2017-11-09T15:27:46.606Z,31.62
2017-11-09T15:30:14.210Z,33.45
2017-11-09T15:32:41.806Z,30.67
2017-11-09T15:35:11.016Z,36.08
2017-11-09T15:37:38.628Z,34.00
2017-11-09T15:40:06.244Z,34.15
2017-11-09T15:42:33.858Z,33.03
2017-11-09T15:45:01.479Z,32.35
2017-11-09T15:47:29.100Z,32.42
2017-11-09T15:49:56.702Z,33.38
2017-11-09T15:52:24.322Z,32.08
2017-11-09T15:54:51.942Z,32.20
2017-11-09T15:57:19.544Z,33.47
2017-11-09T15:59:47.152Z,31.12
2017-11-09T16:02:14.754Z,31.50
2017-11-09T16:04:42.348Z,33.53
2017-11-09T16:07:15.603Z,33.13
2017-11-09T16:09:43.198Z,31.83
2017-11-09T16:12:10.812Z,31.15
2017-11-09T16:14:38.419Z,31.73
2017-11-09T16:17:06.000Z,30.27
2017-11-09T16:19:34.348Z,30.52
2017-11-09T16:22:01.966Z,31.70
2017-11-09T16:24:29.555Z,29.10
2017-11-09T16:26:57.155Z,29.75
2017-11-09T16:29:24.759Z,29.95
2017-11-09T16:31:52.322Z,34.58
2017-11-09T16:34:19.899Z,30.62
2017-11-09T16:36:47.496Z,30.98
2017-11-09T16:39:15.072Z,31.95
2017-11-09T16:41:42.694Z,31.50
2017-11-09T16:44:10.272Z,30.42
2017-11-09T16:46:37.830Z,31.90
2017-11-09T16:49:05.426Z,31.62
2017-11-09T16:51:33.766Z,30.12
2017-11-09T16:54:01.323Z,33.22
2017-11-09T16:56:28.928Z,33.10
2017-11-09T16:58:56.500Z,33.25
2017-11-09T17:01:24.831Z,30.10
2017-11-09T17:03:52.447Z,33.65
2017-11-09T17:06:20.816Z,31.42
2017-11-09T17:08:48.838Z,30.60
2017-11-09T17:11:19.396Z,34.17
2017-11-09T17:13:46.996Z,32.72
2017-11-09T17:16:15.351Z,31.83
2017-11-09T17:18:42.982Z,31.60
2017-11-09T17:21:10.578Z,33.10
2017-11-09T17:23:38.186Z,31.60
2017-11-09T17:26:05.811Z,30.05
2017-11-09T17:28:33.402Z,32.05
2017-11-09T17:31:00.979Z,31.95
2017-11-09T17:33:28.560Z,35.30
2017-11-09T17:35:56.171Z,32.20
2017-11-09T17:38:24.501Z,32.60
2017-11-09T17:40:52.112Z,33.85
2017-11-09T17:43:20.446Z,32.30
2017-11-09T17:45:48.016Z,34.17
2017-11-09T17:48:15.617Z,28.95
2017-11-09T17:50:43.968Z,30.90
2017-11-09T17:53:11.561Z,34.65
2017-11-09T17:55:39.922Z,33.58
2017-11-09T17:58:07.478Z,32.05
2017-11-09T18:00:35.052Z,32.03
2017-11-09T18:03:04.633Z,32.10
2017-11-09T18:05:32.227Z,34.47
2017-11-09T18:07:59.844Z,32.10
2017-11-09T18:10:27.441Z,30.48
2017-11-09T18:12:55.056Z,31.80
2017-11-09T18:15:22.614Z,32.40
2017-11-09T18:17:50.217Z,30.12
2017-11-09T18:20:17.796Z,30.15
2017-11-09T18:22:45.410Z,29.08
2017-11-09T18:25:12.983Z,30.37
2017-11-09T18:27:40.600Z,31.00
2017-11-09T18:30:08.958Z,29.45
2017-11-09T18:32:36.534Z,29.37
2017-11-09T18:35:04.150Z,29.90
2017-11-09T18:37:31.722Z,30.45
2017-11-09T18:39:59.310Z,28.55
2017-11-09T18:42:26.883Z,32.53
2017-11-09T18:44:54.537Z,29.45
2017-11-09T18:47:22.151Z,29.73
2017-11-09T18:49:49.721Z,30.27
2017-11-09T18:52:17.320Z,29.50
2017-11-09T18:54:44.903Z,28.35
2017-11-09T18:57:12.486Z,29.63
2017-11-09T18:59:45.082Z,28.83
2017-11-09T19:02:12.676Z,29.87
2017-11-09T19:04:40.264Z,28.15
2017-11-09T19:07:07.853Z,29.15
2017-11-09T19:09:36.211Z,28.15
2017-11-09T19:12:03.813Z,25.90
2017-11-09T19:14:31.406Z,26.55
2017-11-09T19:16:58.981Z,28.77
2017-11-09T19:19:26.554Z,25.37
2017-11-09T19:21:54.177Z,25.65
2017-11-09T19:24:21.742Z,25.98
2017-11-09T19:26:49.316Z,26.42
2017-11-09T19:29:16.973Z,25.85
2017-11-09T19:31:44.634Z,24.83
2017-11-09T19:34:12.274Z,26.27
2017-11-09T19:36:39.863Z,26.25
2017-11-09T19:39:07.458Z,26.83
2017-11-09T19:41:35.061Z,27.70
2017-11-09T19:44:02.636Z,26.58
2017-11-09T19:46:30.231Z,26.90
2017-11-09T19:48:57.808Z,24.70
2017-11-09T19:51:25.380Z,27.75
2017-11-09T19:53:53.746Z,27.55
2017-11-09T19:56:21.306Z,26.67
2017-11-09T19:58:48.901Z,27.02
2017-11-09T20:01:17.247Z,28.20
2017-11-09T20:03:44.824Z,28.87
2017-11-09T20:06:13.210Z,30.05
2017-11-09T20:08:41.568Z,31.92
2017-11-09T20:11:09.147Z,29.52
2017-11-09T20:13:37.528Z,30.90
2017-11-09T20:16:05.096Z,31.10
2017-11-09T20:18:33.451Z,30.58
2017-11-09T20:21:01.074Z,30.15
2017-11-09T20:23:28.668Z,33.55
2017-11-09T20:25:56.234Z,34.35
2017-11-09T20:28:23.836Z,33.97
2017-11-09T20:30:52.176Z,33.65
2017-11-09T20:33:19.730Z,32.50
2017-11-09T20:35:47.351Z,30.55
2017-11-09T20:38:14.921Z,35.00
2017-11-09T20:40:42.515Z,31.80
2017-11-09T20:43:10.152Z,31.25
2017-11-09T20:45:37.819Z,32.30
2017-11-09T20:48:05.395Z,33.92
2017-11-09T20:50:32.994Z,34.45
2017-11-09T20:53:02.396Z,30.20
2017-11-09T20:55:29.987Z,32.15
2017-11-09T20:57:57.578Z,31.87
2017-11-09T21:00:25.143Z,34.45
2017-11-09T21:02:52.760Z,31.50
2017-11-09T21:05:21.109Z,34.90
2017-11-09T21:07:48.697Z,32.97
2017-11-09T21:10:17.060Z,33.17
2017-11-09T21:12:44.626Z,33.50
2017-11-09T21:15:12.237Z,33.83
2017-11-09T21:17:39.839Z,31.85
2017-11-09T21:20:07.438Z,33.45
2017-11-09T21:22:35.832Z,32.85
2017-11-09T21:25:04.191Z,33.70
2017-11-09T21:27:32.554Z,32.63
2017-11-09T21:30:00.158Z,32.97
2017-11-09T21:32:27.756Z,33.25
2017-11-09T21:34:55.345Z,31.98
2017-11-09T21:37:22.950Z,32.03
2017-11-09T21:39:50.506Z,29.85
2017-11-09T21:42:18.092Z,34.97
2017-11-09T21:44:45.862Z,32.05
2017-11-09T21:47:13.436Z,29.27
2017-11-09T21:49:41.044Z,30.23
2017-11-09T21:52:09.369Z,28.10
2017-11-09T21:54:36.926Z,30.75
2017-11-09T21:57:04.528Z,32.30
2017-11-09T21:59:32.112Z,30.50
2017-11-09T22:02:00.475Z,33.80
2017-11-09T22:04:28.071Z,27.77
2017-11-09T22:06:55.680Z,29.25
2017-11-09T22:09:23.264Z,30.12
2017-11-09T22:11:50.884Z,31.10
2017-11-09T22:14:18.558Z,27.95
2017-11-09T22:16:46.119Z,28.55
2017-11-09T22:19:13.743Z,30.50
2017-11-09T22:21:42.084Z,29.42
2017-11-09T22:24:09.646Z,26.98
2017-11-09T22:26:37.242Z,29.43
2017-11-09T22:29:05.569Z,27.37
2017-11-09T22:31:33.163Z,28.20
2017-11-09T22:34:00.775Z,26.98
2017-11-09T22:36:28.348Z,28.60
2017-11-09T22:38:55.928Z,28.35
2017-11-09T22:41:23.545Z,28.10
2017-11-09T22:43:51.125Z,27.13
2017-11-09T22:46:18.711Z,28.05
2017-11-09T22:48:46.325Z,23.77
2017-11-09T22:51:14.651Z,26.08
2017-11-09T22:53:42.224Z,27.10
2017-11-09T22:56:09.840Z,25.92
2017-11-09T22:58:37.419Z,24.75
2017-11-09T23:01:05.210Z,24.65
2017-11-09T23:03:32.800Z,25.08
2017-11-09T23:06:00.391Z,21.25
2017-11-09T23:08:27.977Z,22.55
2017-11-09T23:10:55.581Z,23.38
2017-11-09T23:13:23.152Z,22.50
2017-11-09T23:15:50.724Z,24.50
2017-11-09T23:18:19.078Z,24.15
2017-11-09T23:20:47.437Z,23.27
2017-11-09T23:23:15.027Z,25.60
2017-11-09T23:25:42.613Z,25.70
2017-11-09T23:28:10.952Z,28.33
2017-11-09T23:30:38.519Z,26.33
2017-11-09T23:33:06.135Z,24.60
2017-11-09T23:35:33.697Z,25.37
2017-11-09T23:38:01.872Z,25.73
2017-11-09T23:40:29.571Z,26.62
2017-11-09T23:42:57.152Z,27.87
2017-11-09T23:45:24.727Z,24.30
2017-11-09T23:47:52.332Z,24.67
2017-11-09T23:50:19.909Z,24.73
2017-11-09T23:52:47.491Z,24.95
2017-11-09T23:55:15.096Z,26.37
2017-11-09T23:57:43.446Z,24.25
